createdAt,value
2019-03-10T00:00:24.519Z,6.54
2019-03-10T00:02:52.977Z,6.54
2019-03-10T00:05:21.223Z,6.53
2019-03-10T00:07:49.561Z,6.53
2019-03-10T00:10:17.841Z,6.51
2019-03-10T00:12:46.074Z,6.51
2019-03-10T00:15:14.514Z,6.51
2019-03-10T00:17:42.775Z,6.50
2019-03-10T00:20:11.230Z,6.48
2019-03-10T00:22:39.513Z,6.47
2019-03-10T00:25:09.116Z,6.48
2019-03-10T00:27:37.378Z,6.49
2019-03-10T00:30:08.470Z,6.49
2019-03-10T00:32:37.699Z,6.48
2019-03-10T00:35:06.518Z,6.46
2019-03-10T00:37:34.773Z,6.42
2019-03-10T00:40:30.680Z,6.43
2019-03-10T00:43:26.009Z,6.42
2019-03-10T00:46:23.180Z,6.38
2019-03-10T00:49:15.014Z,6.35
2019-03-10T00:52:05.860Z,6.35
2019-03-10T00:54:34.272Z,6.33
2019-03-10T00:57:02.511Z,6.31
2019-03-10T00:59:30.807Z,6.32
2019-03-10T01:01:59.060Z,6.28
2019-03-10T01:04:27.350Z,6.27
2019-03-10T01:06:55.698Z,6.27
2019-03-10T01:09:26.333Z,6.27
2019-03-10T01:11:54.719Z,6.26
2019-03-10T01:14:22.974Z,6.22
2019-03-10T01:16:51.250Z,6.25
2019-03-10T01:19:20.156Z,6.28
2019-03-10T01:21:49.294Z,6.23
2019-03-10T01:24:17.572Z,6.21
2019-03-10T01:26:45.992Z,6.21
2019-03-10T01:29:14.241Z,6.20
2019-03-10T01:32:20.324Z,6.16
2019-03-10T01:34:57.875Z,6.16
2019-03-10T01:37:26.191Z,6.17
2019-03-10T01:39:54.447Z,6.17
2019-03-10T01:42:22.687Z,6.13
2019-03-10T01:44:51.006Z,6.13
2019-03-10T01:47:19.295Z,6.10
2019-03-10T01:49:47.575Z,6.11
2019-03-10T01:52:15.854Z,6.04
2019-03-10T01:54:44.132Z,6.08
2019-03-10T01:57:12.436Z,6.04
2019-03-10T01:59:40.687Z,6.05
2019-03-10T02:02:08.950Z,6.04
2019-03-10T02:04:37.325Z,6.03
2019-03-10T02:07:05.581Z,6.02
2019-03-10T02:09:33.821Z,6.03
2019-03-10T02:12:02.113Z,6.06
2019-03-10T02:14:30.365Z,6.06
2019-03-10T02:16:58.599Z,6.08
2019-03-10T02:19:26.867Z,6.08
2019-03-10T02:21:55.263Z,6.06
2019-03-10T02:24:24.274Z,6.06
2019-03-10T02:26:52.639Z,6.07
2019-03-10T02:29:20.902Z,6.08
2019-03-10T02:31:49.192Z,6.10
2019-03-10T02:34:17.465Z,6.09
2019-03-10T02:36:45.710Z,6.10
2019-03-10T02:39:14.096Z,6.15
2019-03-10T02:41:42.351Z,6.13
2019-03-10T02:44:10.596Z,6.13
2019-03-10T02:46:38.914Z,6.13
2019-03-10T02:49:07.283Z,6.14
2019-03-10T02:51:35.524Z,6.13
2019-03-10T02:54:03.812Z,6.13
2019-03-10T02:56:32.073Z,6.15
2019-03-10T02:59:00.329Z,6.08
2019-03-10T03:01:28.599Z,6.13
2019-03-10T03:03:56.978Z,6.13
2019-03-10T03:06:25.237Z,6.13
2019-03-10T03:08:53.586Z,6.13
2019-03-10T03:11:21.854Z,6.12
2019-03-10T03:13:50.099Z,6.08
2019-03-10T03:16:18.378Z,6.06
2019-03-10T03:18:46.638Z,6.04
2019-03-10T03:21:15.017Z,6.01
2019-03-10T03:23:43.365Z,6.01
2019-03-10T03:26:11.643Z,6.00
2019-03-10T03:28:39.902Z,5.97
2019-03-10T03:31:08.286Z,5.95
2019-03-10T03:33:36.577Z,5.98
2019-03-10T03:36:17.012Z,6.00
2019-03-10T03:38:51.341Z,6.00
2019-03-10T03:41:22.567Z,5.98
2019-03-10T03:43:50.808Z,5.91
2019-03-10T03:46:19.140Z,5.98
2019-03-10T03:48:47.433Z,5.98
2019-03-10T03:51:15.662Z,5.96
2019-03-10T03:53:44.036Z,5.96
2019-03-10T03:56:12.258Z,6.00
2019-03-10T03:58:40.701Z,6.02
2019-03-10T04:01:10.578Z,6.00
2019-03-10T04:03:38.852Z,6.04
2019-03-10T04:06:07.280Z,6.01
2019-03-10T04:08:35.521Z,6.00
2019-03-10T04:11:03.779Z,6.01
2019-03-10T04:13:32.164Z,5.98
2019-03-10T04:16:00.426Z,6.01
2019-03-10T04:18:29.486Z,6.03
2019-03-10T04:20:57.804Z,6.02
2019-03-10T04:23:26.054Z,6.02
2019-03-10T04:25:54.321Z,6.01
2019-03-10T04:28:22.604Z,6.00
2019-03-10T04:30:50.896Z,5.97
2019-03-10T04:33:19.165Z,5.97
2019-03-10T04:35:47.476Z,5.98
2019-03-10T04:38:15.747Z,5.98
2019-03-10T04:40:44.002Z,5.97
2019-03-10T04:43:12.305Z,5.95
2019-03-10T04:45:40.667Z,5.97
2019-03-10T04:48:08.931Z,5.98
2019-03-10T04:50:37.173Z,5.96
2019-03-10T04:53:05.430Z,5.98
2019-03-10T04:55:41.294Z,5.97
2019-03-10T04:58:11.217Z,5.97
2019-03-10T05:00:41.216Z,5.96
2019-03-10T05:03:09.614Z,5.94
2019-03-10T05:05:37.861Z,5.94
2019-03-10T05:08:06.161Z,5.92
2019-03-10T05:10:34.896Z,5.91
2019-03-10T05:13:03.199Z,5.88
2019-03-10T05:15:31.448Z,5.88
2019-03-10T05:17:59.759Z,5.89
2019-03-10T05:20:28.009Z,5.87
2019-03-10T05:23:28.123Z,5.87
2019-03-10T05:25:56.805Z,5.85
2019-03-10T05:28:25.098Z,5.80
2019-03-10T05:30:53.408Z,5.80
2019-03-10T05:33:21.829Z,5.83
2019-03-10T05:35:50.113Z,5.84
2019-03-10T05:38:18.394Z,5.83
2019-03-10T05:40:46.674Z,5.83
2019-03-10T05:43:14.946Z,5.79
2019-03-10T05:45:43.224Z,5.79
2019-03-10T05:48:11.534Z,5.81
2019-03-10T05:50:39.782Z,5.72
2019-03-10T05:53:08.028Z,5.71
2019-03-10T05:55:36.468Z,5.71
2019-03-10T05:58:04.725Z,5.70
2019-03-10T06:00:42.109Z,5.66
2019-03-10T06:03:02.981Z,5.69
2019-03-10T06:05:31.254Z,5.68
2019-03-10T06:07:59.503Z,5.68
2019-03-10T06:10:27.777Z,5.67
2019-03-10T06:12:56.024Z,5.68
2019-03-10T06:15:24.345Z,5.60
2019-03-10T06:17:52.599Z,5.60
2019-03-10T06:20:20.886Z,5.65
2019-03-10T06:22:49.252Z,5.63
2019-03-10T06:25:17.531Z,5.64
2019-03-10T06:27:45.778Z,5.69
2019-03-10T06:30:14.063Z,5.71
2019-03-10T06:32:42.305Z,5.64
2019-03-10T06:35:10.733Z,5.64
2019-03-10T06:37:39.034Z,5.70
2019-03-10T06:40:08.180Z,5.67
2019-03-10T06:42:36.494Z,5.67
2019-03-10T06:45:06.108Z,5.73
2019-03-10T06:47:34.486Z,5.73
2019-03-10T06:50:02.805Z,5.72
2019-03-10T06:52:31.090Z,5.73
2019-03-10T06:54:59.387Z,5.73
2019-03-10T06:57:27.632Z,5.73
2019-03-10T06:59:55.885Z,5.79
2019-03-10T07:02:24.205Z,5.81
2019-03-10T07:04:52.490Z,5.82
2019-03-10T07:07:20.869Z,5.85
2019-03-10T07:09:49.120Z,5.85
2019-03-10T07:12:17.368Z,5.84
2019-03-10T07:14:45.641Z,5.87
2019-03-10T07:17:13.946Z,5.87
2019-03-10T07:19:42.370Z,5.88
2019-03-10T07:22:10.598Z,5.88
2019-03-10T07:24:38.854Z,5.89
2019-03-10T07:27:07.197Z,5.93
2019-03-10T07:29:37.138Z,5.89
2019-03-10T07:32:08.859Z,5.89
2019-03-10T07:34:55.073Z,5.96
2019-03-10T07:37:25.022Z,5.93
2019-03-10T07:39:57.836Z,5.93
2019-03-10T07:42:36.993Z,5.98
2019-03-10T07:45:09.472Z,5.95
2019-03-10T07:47:39.347Z,5.99
2019-03-10T07:50:09.402Z,5.96
2019-03-10T07:52:39.362Z,6.02
2019-03-10T07:55:25.602Z,6.07
2019-03-10T07:57:58.079Z,6.10
2019-03-10T08:00:39.823Z,6.12
2019-03-10T08:03:09.838Z,6.18
2019-03-10T08:05:51.429Z,6.18
2019-03-10T08:08:27.336Z,6.21
2019-03-10T08:10:57.226Z,6.22
2019-03-10T08:13:33.300Z,6.22
2019-03-10T08:16:05.888Z,6.31
2019-03-10T08:18:35.864Z,6.35
2019-03-10T08:21:05.756Z,6.37
2019-03-10T08:23:35.674Z,6.40
2019-03-10T08:26:08.558Z,6.46
2019-03-10T08:28:50.135Z,6.49
2019-03-10T08:31:28.845Z,6.51
2019-03-10T08:33:58.728Z,6.52
2019-03-10T08:36:28.712Z,6.54
2019-03-10T08:39:07.657Z,6.55
2019-03-10T08:41:47.165Z,6.52
2019-03-10T08:44:17.099Z,6.51
2019-03-10T08:47:02.107Z,6.49
2019-03-10T08:49:45.369Z,6.49
2019-03-10T08:52:15.132Z,6.47
2019-03-10T08:54:53.825Z,6.44
2019-03-10T08:57:23.842Z,6.41
2019-03-10T09:00:02.496Z,6.39
2019-03-10T09:02:32.445Z,6.38
2019-03-10T09:05:05.073Z,6.33
2019-03-10T09:07:49.917Z,6.34
2019-03-10T09:10:19.959Z,6.31
2019-03-10T09:12:55.687Z,6.31
2019-03-10T09:15:31.149Z,6.29
2019-03-10T09:18:03.747Z,6.27
2019-03-10T09:20:51.818Z,6.28
2019-03-10T09:23:21.760Z,6.30
2019-03-10T09:25:55.084Z,6.31
2019-03-10T09:28:40.474Z,6.30
2019-03-10T09:31:26.844Z,6.30
2019-03-10T09:34:06.582Z,6.30
2019-03-10T09:36:36.482Z,6.29
2019-03-10T09:39:10.354Z,6.28
2019-03-10T09:41:40.248Z,6.28
2019-03-10T09:44:16.075Z,6.27
2019-03-10T09:46:46.066Z,6.21
2019-03-10T09:49:18.797Z,6.22
2019-03-10T09:51:51.362Z,6.21
2019-03-10T09:54:21.393Z,6.16
2019-03-10T09:57:00.434Z,6.16
2019-03-10T09:59:30.373Z,6.16
2019-03-10T10:02:06.287Z,6.15
2019-03-10T10:04:44.913Z,6.11
2019-03-10T10:07:27.011Z,6.14
2019-03-10T10:10:02.767Z,6.13
2019-03-10T10:12:41.693Z,6.07
2019-03-10T10:15:21.481Z,6.04
2019-03-10T10:18:07.386Z,6.08
2019-03-10T10:20:37.330Z,6.08
2019-03-10T10:23:13.789Z,6.06
2019-03-10T10:25:46.459Z,6.04
2019-03-10T10:28:16.380Z,5.99
2019-03-10T10:30:46.279Z,5.99
2019-03-10T10:33:16.187Z,5.96
2019-03-10T10:35:46.083Z,6.05
2019-03-10T10:38:24.649Z,6.11
2019-03-10T10:41:10.608Z,6.15
2019-03-10T10:43:53.148Z,6.23
2019-03-10T10:46:35.141Z,6.19
2019-03-10T10:49:20.021Z,6.22
2019-03-10T10:52:05.056Z,6.22
2019-03-10T10:54:43.746Z,6.32
2019-03-10T10:57:19.597Z,6.36
2019-03-10T10:59:52.056Z,6.38
2019-03-10T11:02:30.819Z,6.38
2019-03-10T11:05:04.108Z,6.36
2019-03-10T11:07:50.024Z,6.38
2019-03-10T11:10:25.929Z,6.38
2019-03-10T11:13:14.150Z,6.40
2019-03-10T11:15:44.072Z,6.38
2019-03-10T11:18:19.793Z,6.39
2019-03-10T11:21:05.554Z,6.38
2019-03-10T11:23:51.625Z,6.40
2019-03-10T11:26:24.241Z,6.42
2019-03-10T11:29:05.950Z,6.42
2019-03-10T11:31:35.829Z,6.42
2019-03-10T11:34:11.316Z,6.44
2019-03-10T11:36:44.033Z,6.45
2019-03-10T11:39:29.148Z,6.46
2019-03-10T11:42:10.699Z,6.47
2019-03-10T11:44:43.547Z,6.51
2019-03-10T11:47:19.524Z,6.54
2019-03-10T11:50:07.536Z,6.53
2019-03-10T11:52:40.318Z,6.51
2019-03-10T11:55:25.600Z,6.48
2019-03-10T11:57:55.711Z,6.49
2019-03-10T12:00:27.998Z,6.51
2019-03-10T12:03:14.424Z,6.49
2019-03-10T12:06:01.217Z,6.46
2019-03-10T12:08:40.058Z,6.39
2019-03-10T12:11:08.321Z,6.37
2019-03-10T12:13:37.274Z,6.33
2019-03-10T12:16:05.633Z,6.17
2019-03-10T12:18:33.920Z,6.15
2019-03-10T12:21:02.320Z,6.18
2019-03-10T12:23:31.160Z,6.12
2019-03-10T12:25:59.411Z,6.06
2019-03-10T12:28:27.710Z,5.97
2019-03-10T12:30:55.945Z,5.91
2019-03-10T12:33:24.225Z,5.96
2019-03-10T12:35:53.076Z,5.87
2019-03-10T12:38:21.311Z,5.85
2019-03-10T12:40:49.621Z,5.85
2019-03-10T12:43:17.958Z,5.81
2019-03-10T12:45:46.205Z,5.81
2019-03-10T12:48:14.562Z,5.73
2019-03-10T12:50:44.144Z,5.77
2019-03-10T12:53:12.525Z,5.77
2019-03-10T12:55:40.834Z,5.81
2019-03-10T12:58:09.989Z,5.82
2019-03-10T13:00:38.293Z,5.84
2019-03-10T13:03:06.552Z,5.89
2019-03-10T13:05:35.217Z,5.80
2019-03-10T13:08:03.488Z,5.71
2019-03-10T13:10:31.731Z,5.71
2019-03-10T13:13:00.067Z,5.70
2019-03-10T13:15:28.321Z,5.66
2019-03-10T13:17:56.621Z,5.64
2019-03-10T13:20:28.550Z,5.57
2019-03-10T13:22:54.869Z,5.53
2019-03-10T13:25:23.144Z,5.53
2019-03-10T13:27:51.462Z,5.36
2019-03-10T13:30:19.701Z,5.21
2019-03-10T13:32:48.063Z,5.21
2019-03-10T13:35:16.311Z,5.10
2019-03-10T13:37:44.614Z,5.10
2019-03-10T13:40:14.363Z,5.09
2019-03-10T13:42:42.654Z,5.09
2019-03-10T13:45:12.942Z,5.05
2019-03-10T13:47:41.268Z,5.05
2019-03-10T13:50:12.282Z,4.89
2019-03-10T13:52:40.710Z,4.89
2019-03-10T13:55:09.528Z,4.89
2019-03-10T13:57:38.539Z,4.89
2019-03-10T14:00:10.245Z,4.84
2019-03-10T14:02:38.582Z,4.81
2019-03-10T14:05:08.231Z,4.81
2019-03-10T14:07:37.276Z,4.84
2019-03-10T14:10:10.520Z,4.79
2019-03-10T14:12:38.218Z,4.81
2019-03-10T14:15:09.851Z,4.78
2019-03-10T14:17:38.174Z,4.83
2019-03-10T14:20:09.370Z,4.71
2019-03-10T14:22:37.653Z,4.71
2019-03-10T14:25:08.048Z,4.66
2019-03-10T14:27:36.395Z,4.57
2019-03-10T14:30:17.009Z,4.49
2019-03-10T14:32:45.276Z,4.45
2019-03-10T14:35:13.590Z,4.46
2019-03-10T14:37:41.995Z,4.40
2019-03-10T14:40:15.870Z,4.30
2019-03-10T14:42:44.114Z,4.20
2019-03-10T14:45:15.025Z,4.15
2019-03-10T14:47:43.305Z,4.06
2019-03-10T14:50:13.235Z,3.89
2019-03-10T14:52:41.488Z,3.82
2019-03-10T14:55:12.632Z,3.71
2019-03-10T14:57:40.911Z,3.68
2019-03-10T15:00:13.027Z,3.59
2019-03-10T15:02:41.308Z,3.57
2019-03-10T15:05:09.568Z,3.58
2019-03-10T15:07:37.952Z,3.57
2019-03-10T15:10:09.065Z,3.52
2019-03-10T15:12:37.399Z,3.48
2019-03-10T15:15:09.098Z,3.51
2019-03-10T15:17:37.393Z,3.48
2019-03-10T15:20:07.993Z,3.47
2019-03-10T15:22:36.250Z,3.36
2019-03-10T15:25:07.188Z,3.36
2019-03-10T15:27:35.436Z,3.34
2019-03-10T15:30:04.744Z,3.33
2019-03-10T15:32:33.010Z,3.32
2019-03-10T15:35:01.317Z,3.28
2019-03-10T15:37:29.697Z,3.25
2019-03-10T15:39:58.050Z,3.16
2019-03-10T15:42:26.329Z,3.09
2019-03-10T15:44:54.581Z,3.01
2019-03-10T15:47:22.837Z,2.99
2019-03-10T15:49:51.076Z,2.88
2019-03-10T15:52:19.323Z,2.78
2019-03-10T15:54:47.733Z,2.71
2019-03-10T15:57:15.970Z,2.60
2019-03-10T15:59:44.208Z,2.54
2019-03-10T16:02:13.040Z,2.39
2019-03-10T16:04:41.312Z,2.31
2019-03-10T16:07:09.685Z,2.23
2019-03-10T16:09:37.994Z,2.10
2019-03-10T16:12:06.236Z,2.07
2019-03-10T16:14:34.615Z,2.00
2019-03-10T16:17:02.951Z,1.95
2019-03-10T16:19:31.186Z,1.88
2019-03-10T16:21:59.506Z,1.92
2019-03-10T16:24:27.773Z,1.93
2019-03-10T16:26:56.071Z,1.89
2019-03-10T16:29:24.373Z,1.85
2019-03-10T16:31:52.652Z,1.82
2019-03-10T16:34:21.015Z,1.84
2019-03-10T16:36:49.370Z,1.79
2019-03-10T16:39:17.685Z,1.84
2019-03-10T16:41:46.065Z,1.81
2019-03-10T16:44:14.303Z,1.83
2019-03-10T16:46:42.609Z,1.82
2019-03-10T16:49:10.874Z,1.85
2019-03-10T16:51:39.142Z,1.86
2019-03-10T16:54:07.381Z,1.86
2019-03-10T16:56:35.921Z,1.85
2019-03-10T16:59:04.232Z,1.91
2019-03-10T17:01:32.514Z,1.96
2019-03-10T17:04:00.841Z,2.00
2019-03-10T17:06:29.081Z,2.01
2019-03-10T17:08:57.323Z,2.03
2019-03-10T17:11:25.730Z,2.06
2019-03-10T17:13:53.963Z,2.09
2019-03-10T17:16:22.208Z,2.10
2019-03-10T17:18:50.476Z,2.10
2019-03-10T17:21:18.728Z,2.10
2019-03-10T17:23:46.990Z,2.09
2019-03-10T17:26:15.236Z,2.13
2019-03-10T17:28:43.538Z,2.14
2019-03-10T17:31:11.781Z,2.16
2019-03-10T17:33:40.089Z,2.21
2019-03-10T17:36:08.373Z,2.23
2019-03-10T17:38:36.635Z,2.22
2019-03-10T17:41:04.877Z,2.18
2019-03-10T17:43:33.143Z,2.23
2019-03-10T17:46:01.413Z,2.26
2019-03-10T17:48:29.704Z,2.28
2019-03-10T17:50:58.020Z,2.29
2019-03-10T17:53:26.275Z,2.30
2019-03-10T17:55:54.542Z,2.24
2019-03-10T17:58:22.791Z,2.25
2019-03-10T18:00:51.075Z,2.24
2019-03-10T18:03:19.334Z,2.25
2019-03-10T18:05:47.603Z,2.25
2019-03-10T18:08:15.907Z,2.29
2019-03-10T18:10:44.146Z,2.30
2019-03-10T18:13:12.410Z,2.30
2019-03-10T18:15:40.714Z,2.33
2019-03-10T18:18:08.954Z,2.33
2019-03-10T18:20:37.213Z,2.38
2019-03-10T18:23:05.483Z,2.37
2019-03-10T18:25:33.782Z,2.39
2019-03-10T18:28:02.088Z,2.41
2019-03-10T18:30:30.357Z,2.42
2019-03-10T18:33:01.634Z,2.43
2019-03-10T18:35:29.912Z,2.49
2019-03-10T18:37:58.156Z,2.52
2019-03-10T18:40:28.434Z,2.54
2019-03-10T18:42:56.716Z,2.54
2019-03-10T18:45:25.753Z,2.57
2019-03-10T18:47:53.964Z,2.62
2019-03-10T18:50:24.734Z,2.64
2019-03-10T18:52:53.009Z,2.65
2019-03-10T18:55:21.431Z,2.69
2019-03-10T18:57:49.728Z,2.70
2019-03-10T19:00:23.136Z,2.70
2019-03-10T19:02:51.496Z,2.64
2019-03-10T19:05:19.745Z,2.64
2019-03-10T19:07:48.005Z,2.63
2019-03-10T19:10:16.281Z,2.64
2019-03-10T19:12:44.576Z,2.64
2019-03-10T19:15:17.476Z,2.63
2019-03-10T19:17:45.763Z,2.65
2019-03-10T19:20:15.039Z,2.63
2019-03-10T19:22:47.422Z,2.58
2019-03-10T19:25:16.501Z,2.53
2019-03-10T19:27:44.847Z,2.51
2019-03-10T19:30:17.461Z,2.46
2019-03-10T19:32:45.834Z,2.39
2019-03-10T19:35:14.080Z,2.40
2019-03-10T19:37:42.431Z,2.40
2019-03-10T19:40:13.319Z,2.39
2019-03-10T19:42:41.553Z,2.39
2019-03-10T19:45:14.822Z,2.38
2019-03-10T19:47:43.058Z,2.38
2019-03-10T19:50:13.683Z,2.38
2019-03-10T19:52:41.994Z,2.40
2019-03-10T19:55:13.088Z,2.42
2019-03-10T19:57:41.355Z,2.43
2019-03-10T20:00:15.021Z,2.43
2019-03-10T20:02:43.329Z,2.42
2019-03-10T20:05:11.876Z,2.40
2019-03-10T20:07:40.191Z,2.41
2019-03-10T20:10:11.345Z,2.39
2019-03-10T20:12:42.651Z,2.41
2019-03-10T20:15:18.898Z,2.42
2019-03-10T20:17:47.492Z,2.41
2019-03-10T20:20:17.356Z,2.46
2019-03-10T20:22:45.718Z,2.46
2019-03-10T20:25:15.290Z,2.43
2019-03-10T20:27:47.701Z,2.41
2019-03-10T20:30:20.723Z,2.45
2019-03-10T20:32:48.991Z,2.45
2019-03-10T20:35:17.512Z,2.47
2019-03-10T20:37:47.628Z,2.47
2019-03-10T20:40:31.419Z,2.50
2019-03-10T20:43:06.971Z,2.52
2019-03-10T20:45:56.694Z,2.54
2019-03-10T20:48:25.062Z,2.56
2019-03-10T20:51:28.633Z,2.57
2019-03-10T20:53:57.060Z,2.53
2019-03-10T20:56:48.848Z,2.54
2019-03-10T20:59:18.078Z,2.53
2019-03-10T21:01:46.813Z,2.53
2019-03-10T21:07:15.211Z,2.59
2019-03-10T21:10:02.248Z,2.66
2019-03-10T21:12:40.021Z,2.72
2019-03-10T21:15:10.009Z,2.81
2019-03-10T21:17:38.351Z,2.84
2019-03-10T21:20:09.716Z,2.86
2019-03-10T21:22:38.013Z,2.89
2019-03-10T21:25:14.809Z,2.92
2019-03-10T21:27:43.202Z,2.94
2019-03-10T21:30:14.094Z,2.94
2019-03-10T21:32:42.344Z,2.98
2019-03-10T21:35:17.625Z,2.98
2019-03-10T21:37:40.697Z,2.98
2019-03-10T21:40:14.577Z,3.03
2019-03-10T21:42:42.855Z,3.01
2019-03-10T21:45:11.468Z,3.09
2019-03-10T21:47:39.799Z,3.10
2019-03-10T21:50:15.734Z,3.08
2019-03-10T21:52:44.074Z,3.02
2019-03-10T21:55:14.544Z,2.97
2019-03-10T21:57:42.854Z,2.97
2019-03-10T22:00:19.327Z,2.95
2019-03-10T22:02:47.696Z,2.96
2019-03-10T22:05:17.641Z,2.98
2019-03-10T22:07:45.943Z,3.02
2019-03-10T22:10:27.268Z,3.01
2019-03-10T22:12:51.116Z,3.04
2019-03-10T22:15:20.370Z,3.07
2019-03-10T22:17:48.633Z,3.07
2019-03-10T22:20:18.012Z,3.09
2019-03-10T22:22:49.402Z,3.10
2019-03-10T22:25:16.367Z,3.15
2019-03-10T22:27:46.134Z,3.20
2019-03-10T22:30:24.457Z,3.28
2019-03-10T22:32:52.752Z,3.34
2019-03-10T22:35:20.997Z,3.37
2019-03-10T22:37:49.328Z,3.41
2019-03-10T22:40:17.971Z,3.43
2019-03-10T22:42:46.226Z,3.48
2019-03-10T22:45:18.212Z,3.54
2019-03-10T22:47:46.464Z,3.58
2019-03-10T22:50:15.464Z,3.57
2019-03-10T22:52:43.945Z,3.60
2019-03-10T22:55:13.230Z,3.60
2019-03-10T22:57:41.646Z,3.60
2019-03-10T23:00:18.141Z,3.62
2019-03-10T23:02:46.466Z,3.63
2019-03-10T23:05:14.693Z,3.62
2019-03-10T23:07:43.796Z,3.64
2019-03-10T23:10:15.476Z,3.65
2019-03-10T23:12:43.713Z,3.69
2019-03-10T23:15:13.128Z,3.71
2019-03-10T23:17:41.377Z,3.78
2019-03-10T23:20:14.386Z,3.80
2019-03-10T23:22:42.696Z,3.82
2019-03-10T23:25:11.012Z,3.82
2019-03-10T23:27:39.382Z,3.84
2019-03-10T23:30:20.439Z,3.87
2019-03-10T23:32:48.697Z,3.84
2019-03-10T23:35:16.947Z,3.79
2019-03-10T23:37:45.996Z,3.79
2019-03-10T23:40:15.828Z,3.78
2019-03-10T23:42:44.102Z,3.76
2019-03-10T23:45:17.930Z,3.79
2019-03-10T23:47:48.826Z,3.81
2019-03-10T23:50:18.271Z,3.79
2019-03-10T23:52:46.514Z,3.77
2019-03-10T23:55:14.820Z,3.76
2019-03-10T23:57:43.237Z,3.77
